Portada
METAR-TAF:

METAR-TAF

Aeroports :

Jaffrey, Nova Hampshire, Estats Units d'Amèrica

latitud: 42-48-21N, longitud: 072-00-02W, altitud: 317 m

Observació

L'informe es va fer fa 38 minuts, a les 22:52 UTC
Vent 4 kt amb direcció variable
Temperatura 17°C
Humitat 36%
Pressió 1024 hPa
Visibilitat: 16.1 km
Cel clar

METAR: KAFN 242252Z AUTO VRB04KT 10SM CLR 17/02 A3025 RMK AO2 SLP253 T01670017

Hora: 19:30 (23:30 UTC)


TAF: manca

Observacions i pronòstics meteorològics de més de 4000 aeroports (METAR i TAF).

Les estacions disponibles són els punts grocs i vermells al mapa.

Posi el ratolí al punt desitjat per veure el nom de l'estació.

Feu clic per veure les observacions i els pronòstics meteorològics.

Per canviar el mapa: feu clic els botons verds amb una creu de color negre per apropar; al botó verd amb un guió per allunyar la imatge; o en les fletxes verdes per a mapes adjacents.


METAR-TAF: